sensor_id;sensor_type;location;lat;lon;timestamp;P1;durP1;ratioP1;P2;durP2;ratioP2
76194;SDS011;64964;48.694;21.206;2024-02-16T00:00:17;29.60;;;14.70;;
76194;SDS011;64964;48.694;21.206;2024-02-16T00:02:43;26.77;;;14.03;;
76194;SDS011;64964;48.694;21.206;2024-02-16T00:05:09;25.73;;;13.85;;
76194;SDS011;64964;48.694;21.206;2024-02-16T00:07:36;28.17;;;14.27;;
76194;SDS011;64964;48.694;21.206;2024-02-16T00:10:02;26.70;;;14.13;;
76194;SDS011;64964;48.694;21.206;2024-02-16T00:12:29;28.73;;;14.15;;
76194;SDS011;64964;48.694;21.206;2024-02-16T00:14:58;26.30;;;13.93;;
76194;SDS011;64964;48.694;21.206;2024-02-16T00:17:24;28.88;;;13.68;;
76194;SDS011;64964;48.694;21.206;2024-02-16T00:19:53;26.67;;;12.95;;
76194;SDS011;64964;48.694;21.206;2024-02-16T00:22:19;26.13;;;13.10;;
76194;SDS011;64964;48.694;21.206;2024-02-16T00:24:44;23.92;;;12.88;;
76194;SDS011;64964;48.694;21.206;2024-02-16T00:27:10;24.57;;;12.60;;
76194;SDS011;64964;48.694;21.206;2024-02-16T00:29:35;24.47;;;12.77;;
76194;SDS011;64964;48.694;21.206;2024-02-16T00:32:03;25.85;;;13.63;;
76194;SDS011;64964;48.694;21.206;2024-02-16T00:34:32;26.65;;;13.05;;
76194;SDS011;64964;48.694;21.206;2024-02-16T00:36:58;22.08;;;12.73;;
76194;SDS011;64964;48.694;21.206;2024-02-16T00:39:24;25.40;;;13.63;;
76194;SDS011;64964;48.694;21.206;2024-02-16T00:41:50;25.23;;;13.32;;
76194;SDS011;64964;48.694;21.206;2024-02-16T00:44:15;27.07;;;13.53;;
76194;SDS011;64964;48.694;21.206;2024-02-16T00:46:41;24.20;;;12.57;;
76194;SDS011;64964;48.694;21.206;2024-02-16T00:49:06;27.58;;;13.13;;
76194;SDS011;64964;48.694;21.206;2024-02-16T00:51:32;25.60;;;13.03;;
76194;SDS011;64964;48.694;21.206;2024-02-16T00:53:57;25.70;;;13.33;;
76194;SDS011;64964;48.694;21.206;2024-02-16T00:56:23;26.58;;;12.95;;
76194;SDS011;64964;48.694;21.206;2024-02-16T00:58:48;27.87;;;13.70;;
76194;SDS011;64964;48.694;21.206;2024-02-16T01:01:14;26.93;;;13.17;;
76194;SDS011;64964;48.694;21.206;2024-02-16T01:03:39;29.05;;;13.75;;
76194;SDS011;64964;48.694;21.206;2024-02-16T01:06:05;27.97;;;13.47;;
76194;SDS011;64964;48.694;21.206;2024-02-16T01:08:31;27.92;;;14.48;;
76194;SDS011;64964;48.694;21.206;2024-02-16T01:10:57;25.40;;;13.53;;
76194;SDS011;64964;48.694;21.206;2024-02-16T01:13:22;28.23;;;14.03;;
76194;SDS011;64964;48.694;21.206;2024-02-16T01:15:47;23.95;;;12.82;;
76194;SDS011;64964;48.694;21.206;2024-02-16T01:18:13;27.93;;;13.93;;
76194;SDS011;64964;48.694;21.206;2024-02-16T01:20:38;25.73;;;13.10;;
76194;SDS011;64964;48.694;21.206;2024-02-16T01:23:04;27.63;;;13.53;;
76194;SDS011;64964;48.694;21.206;2024-02-16T01:25:30;26.55;;;13.82;;
76194;SDS011;64964;48.694;21.206;2024-02-16T01:27:57;24.65;;;13.63;;
76194;SDS011;64964;48.694;21.206;2024-02-16T01:30:22;27.92;;;13.63;;
76194;SDS011;64964;48.694;21.206;2024-02-16T01:32:48;27.00;;;13.67;;
76194;SDS011;64964;48.694;21.206;2024-02-16T01:35:13;27.70;;;13.70;;
76194;SDS011;64964;48.694;21.206;2024-02-16T01:37:42;24.92;;;13.95;;
76194;SDS011;64964;48.694;21.206;2024-02-16T01:40:10;28.37;;;13.73;;
76194;SDS011;64964;48.694;21.206;2024-02-16T01:42:41;28.98;;;14.38;;
76194;SDS011;64964;48.694;21.206;2024-02-16T01:45:07;30.15;;;14.27;;
76194;SDS011;64964;48.694;21.206;2024-02-16T01:47:37;28.05;;;14.23;;
76194;SDS011;64964;48.694;21.206;2024-02-16T01:50:03;27.98;;;14.38;;
76194;SDS011;64964;48.694;21.206;2024-02-16T01:52:30;28.90;;;13.87;;
76194;SDS011;64964;48.694;21.206;2024-02-16T01:54:56;27.70;;;13.93;;
76194;SDS011;64964;48.694;21.206;2024-02-16T01:57:23;30.75;;;14.43;;
76194;SDS011;64964;48.694;21.206;2024-02-16T01:59:49;29.30;;;14.20;;
76194;SDS011;64964;48.694;21.206;2024-02-16T02:02:15;29.70;;;14.77;;
76194;SDS011;64964;48.694;21.206;2024-02-16T02:04:40;31.30;;;14.57;;
76194;SDS011;64964;48.694;21.206;2024-02-16T02:07:14;32.60;;;15.73;;
76194;SDS011;64964;48.694;21.206;2024-02-16T02:09:40;34.30;;;15.65;;
76194;SDS011;64964;48.694;21.206;2024-02-16T02:12:06;33.27;;;15.73;;
76194;SDS011;64964;48.694;21.206;2024-02-16T02:14:33;31.20;;;16.50;;
76194;SDS011;64964;48.694;21.206;2024-02-16T02:16:58;31.77;;;14.90;;
76194;SDS011;64964;48.694;21.206;2024-02-16T02:19:23;29.33;;;15.27;;
76194;SDS011;64964;48.694;21.206;2024-02-16T02:21:49;32.90;;;15.47;;
76194;SDS011;64964;48.694;21.206;2024-02-16T02:24:15;30.42;;;14.25;;
76194;SDS011;64964;48.694;21.206;2024-02-16T02:26:41;30.15;;;14.90;;
76194;SDS011;64964;48.694;21.206;2024-02-16T02:29:06;29.10;;;14.10;;
76194;SDS011;64964;48.694;21.206;2024-02-16T02:31:32;31.17;;;15.23;;
76194;SDS011;64964;48.694;21.206;2024-02-16T02:33:57;25.20;;;13.60;;
76194;SDS011;64964;48.694;21.206;2024-02-16T02:36:22;27.77;;;14.00;;
76194;SDS011;64964;48.694;21.206;2024-02-16T02:38:48;27.52;;;14.35;;
76194;SDS011;64964;48.694;21.206;2024-02-16T02:41:13;27.17;;;13.63;;
76194;SDS011;64964;48.694;21.206;2024-02-16T02:43:41;26.92;;;13.85;;
76194;SDS011;64964;48.694;21.206;2024-02-16T02:46:07;26.83;;;14.57;;
76194;SDS011;64964;48.694;21.206;2024-02-16T02:48:32;30.58;;;13.57;;
76194;SDS011;64964;48.694;21.206;2024-02-16T02:50:57;27.30;;;13.63;;
76194;SDS011;64964;48.694;21.206;2024-02-16T02:53:24;25.80;;;12.93;;
76194;SDS011;64964;48.694;21.206;2024-02-16T02:55:52;28.23;;;13.57;;
76194;SDS011;64964;48.694;21.206;2024-02-16T02:58:18;26.27;;;12.80;;
76194;SDS011;64964;48.694;21.206;2024-02-16T03:00:43;30.47;;;13.83;;
76194;SDS011;64964;48.694;21.206;2024-02-16T03:03:09;25.33;;;13.32;;
76194;SDS011;64964;48.694;21.206;2024-02-16T03:05:35;31.47;;;14.30;;
76194;SDS011;64964;48.694;21.206;2024-02-16T03:08:00;31.77;;;15.70;;
76194;SDS011;64964;48.694;21.206;2024-02-16T03:10:26;32.78;;;15.52;;
76194;SDS011;64964;48.694;21.206;2024-02-16T03:12:56;32.17;;;14.57;;
76194;SDS011;64964;48.694;21.206;2024-02-16T03:15:21;28.87;;;15.10;;
76194;SDS011;64964;48.694;21.206;2024-02-16T03:17:46;33.57;;;14.33;;
76194;SDS011;64964;48.694;21.206;2024-02-16T03:20:12;30.83;;;15.07;;
76194;SDS011;64964;48.694;21.206;2024-02-16T03:22:37;30.33;;;14.90;;
76194;SDS011;64964;48.694;21.206;2024-02-16T03:25:03;33.07;;;14.37;;
76194;SDS011;64964;48.694;21.206;2024-02-16T03:27:30;31.13;;;14.63;;
76194;SDS011;64964;48.694;21.206;2024-02-16T03:29:55;31.85;;;14.77;;
76194;SDS011;64964;48.694;21.206;2024-02-16T03:32:20;30.33;;;14.37;;
76194;SDS011;64964;48.694;21.206;2024-02-16T03:34:46;29.57;;;15.10;;
76194;SDS011;64964;48.694;21.206;2024-02-16T03:37:11;31.03;;;15.03;;
76194;SDS011;64964;48.694;21.206;2024-02-16T03:39:37;30.77;;;14.43;;
76194;SDS011;64964;48.694;21.206;2024-02-16T03:42:02;28.23;;;13.63;;
76194;SDS011;64964;48.694;21.206;2024-02-16T03:44:28;26.67;;;13.53;;
76194;SDS011;64964;48.694;21.206;2024-02-16T03:46:53;24.43;;;12.60;;
76194;SDS011;64964;48.694;21.206;2024-02-16T03:49:19;23.58;;;12.43;;
76194;SDS011;64964;48.694;21.206;2024-02-16T03:51:44;32.80;;;13.27;;
76194;SDS011;64964;48.694;21.206;2024-02-16T03:54:09;25.13;;;13.73;;
76194;SDS011;64964;48.694;21.206;2024-02-16T03:56:35;29.37;;;13.70;;
76194;SDS011;64964;48.694;21.206;2024-02-16T03:59:00;28.73;;;13.07;;
76194;SDS011;64964;48.694;21.206;2024-02-16T04:01:26;28.03;;;14.30;;
76194;SDS011;64964;48.694;21.206;2024-02-16T04:03:51;25.10;;;13.23;;
76194;SDS011;64964;48.694;21.206;2024-02-16T04:06:18;28.20;;;12.48;;
76194;SDS011;64964;48.694;21.206;2024-02-16T04:08:44;28.83;;;12.57;;
76194;SDS011;64964;48.694;21.206;2024-02-16T04:11:12;26.20;;;13.33;;
76194;SDS011;64964;48.694;21.206;2024-02-16T04:13:40;29.15;;;13.55;;
76194;SDS011;64964;48.694;21.206;2024-02-16T04:16:06;29.63;;;13.63;;
76194;SDS011;64964;48.694;21.206;2024-02-16T04:18:31;29.92;;;13.85;;
76194;SDS011;64964;48.694;21.206;2024-02-16T04:20:56;28.43;;;14.23;;
76194;SDS011;64964;48.694;21.206;2024-02-16T04:23:22;26.97;;;13.53;;
76194;SDS011;64964;48.694;21.206;2024-02-16T04:25:47;28.77;;;13.73;;
76194;SDS011;64964;48.694;21.206;2024-02-16T04:28:12;29.37;;;12.90;;
76194;SDS011;64964;48.694;21.206;2024-02-16T04:30:38;29.00;;;13.50;;
76194;SDS011;64964;48.694;21.206;2024-02-16T04:33:04;29.37;;;13.57;;
76194;SDS011;64964;48.694;21.206;2024-02-16T04:35:30;29.58;;;13.88;;
76194;SDS011;64964;48.694;21.206;2024-02-16T04:37:55;29.93;;;13.70;;
76194;SDS011;64964;48.694;21.206;2024-02-16T04:40:20;32.13;;;14.47;;
76194;SDS011;64964;48.694;21.206;2024-02-16T04:42:46;33.50;;;14.47;;
76194;SDS011;64964;48.694;21.206;2024-02-16T04:45:12;29.93;;;14.10;;
76194;SDS011;64964;48.694;21.206;2024-02-16T04:47:38;36.97;;;15.63;;
76194;SDS011;64964;48.694;21.206;2024-02-16T04:50:03;38.57;;;16.77;;
76194;SDS011;64964;48.694;21.206;2024-02-16T04:52:29;40.47;;;17.10;;
76194;SDS011;64964;48.694;21.206;2024-02-16T04:54:55;44.30;;;18.57;;
76194;SDS011;64964;48.694;21.206;2024-02-16T04:57:20;53.10;;;20.27;;
76194;SDS011;64964;48.694;21.206;2024-02-16T04:59:45;51.72;;;20.15;;
76194;SDS011;64964;48.694;21.206;2024-02-16T05:02:11;56.77;;;20.50;;
76194;SDS011;64964;48.694;21.206;2024-02-16T05:04:36;50.07;;;19.30;;
76194;SDS011;64964;48.694;21.206;2024-02-16T05:07:01;49.90;;;20.87;;
76194;SDS011;64964;48.694;21.206;2024-02-16T05:09:27;47.87;;;19.67;;
76194;SDS011;64964;48.694;21.206;2024-02-16T05:11:52;53.55;;;19.63;;
76194;SDS011;64964;48.694;21.206;2024-02-16T05:14:18;50.80;;;20.40;;
76194;SDS011;64964;48.694;21.206;2024-02-16T05:16:43;53.87;;;21.37;;
76194;SDS011;64964;48.694;21.206;2024-02-16T05:19:10;48.50;;;20.13;;
76194;SDS011;64964;48.694;21.206;2024-02-16T05:21:35;51.57;;;20.13;;
76194;SDS011;64964;48.694;21.206;2024-02-16T05:24:00;50.87;;;21.27;;
76194;SDS011;64964;48.694;21.206;2024-02-16T05:26:26;48.35;;;20.02;;
76194;SDS011;64964;48.694;21.206;2024-02-16T05:28:51;54.13;;;21.00;;
76194;SDS011;64964;48.694;21.206;2024-02-16T05:31:17;52.70;;;20.17;;
76194;SDS011;64964;48.694;21.206;2024-02-16T05:33:47;48.95;;;19.88;;
76194;SDS011;64964;48.694;21.206;2024-02-16T05:36:20;53.45;;;20.42;;
76194;SDS011;64964;48.694;21.206;2024-02-16T05:38:49;48.77;;;21.87;;
76194;SDS011;64964;48.694;21.206;2024-02-16T05:41:18;52.13;;;22.27;;
76194;SDS011;64964;48.694;21.206;2024-02-16T05:43:43;53.13;;;22.00;;
76194;SDS011;64964;48.694;21.206;2024-02-16T05:46:13;60.78;;;22.60;;
76194;SDS011;64964;48.694;21.206;2024-02-16T05:48:42;62.85;;;22.65;;
76194;SDS011;64964;48.694;21.206;2024-02-16T05:51:08;60.42;;;22.70;;
76194;SDS011;64964;48.694;21.206;2024-02-16T05:53:34;59.70;;;23.07;;
76194;SDS011;64964;48.694;21.206;2024-02-16T05:56:00;62.10;;;22.05;;
76194;SDS011;64964;48.694;21.206;2024-02-16T05:58:26;60.55;;;22.30;;
76194;SDS011;64964;48.694;21.206;2024-02-16T06:00:51;63.80;;;25.17;;
76194;SDS011;64964;48.694;21.206;2024-02-16T06:03:17;66.53;;;23.58;;
76194;SDS011;64964;48.694;21.206;2024-02-16T06:05:42;70.77;;;26.13;;
76194;SDS011;64964;48.694;21.206;2024-02-16T06:08:11;80.53;;;28.88;;
76194;SDS011;64964;48.694;21.206;2024-02-16T06:10:36;79.88;;;28.17;;
76194;SDS011;64964;48.694;21.206;2024-02-16T06:13:02;82.67;;;29.93;;
76194;SDS011;64964;48.694;21.206;2024-02-16T06:15:27;89.97;;;30.83;;
76194;SDS011;64964;48.694;21.206;2024-02-16T06:17:53;83.47;;;29.30;;
76194;SDS011;64964;48.694;21.206;2024-02-16T06:20:19;75.22;;;27.65;;
76194;SDS011;64964;48.694;21.206;2024-02-16T06:22:44;77.47;;;28.53;;
76194;SDS011;64964;48.694;21.206;2024-02-16T06:25:09;82.20;;;28.03;;
76194;SDS011;64964;48.694;21.206;2024-02-16T06:27:35;70.30;;;27.00;;
76194;SDS011;64964;48.694;21.206;2024-02-16T06:30:01;68.53;;;26.73;;
76194;SDS011;64964;48.694;21.206;2024-02-16T06:32:28;71.70;;;26.85;;
76194;SDS011;64964;48.694;21.206;2024-02-16T06:34:54;67.45;;;25.33;;
76194;SDS011;64964;48.694;21.206;2024-02-16T06:37:20;64.60;;;26.17;;
76194;SDS011;64964;48.694;21.206;2024-02-16T06:39:46;68.60;;;26.50;;
76194;SDS011;64964;48.694;21.206;2024-02-16T06:42:11;75.03;;;27.47;;
76194;SDS011;64964;48.694;21.206;2024-02-16T06:44:37;72.87;;;26.10;;
76194;SDS011;64964;48.694;21.206;2024-02-16T06:47:04;69.32;;;25.02;;
76194;SDS011;64964;48.694;21.206;2024-02-16T06:49:30;62.20;;;24.77;;
76194;SDS011;64964;48.694;21.206;2024-02-16T06:51:56;53.88;;;22.20;;
76194;SDS011;64964;48.694;21.206;2024-02-16T06:54:21;54.73;;;22.43;;
76194;SDS011;64964;48.694;21.206;2024-02-16T06:56:47;52.03;;;22.17;;
76194;SDS011;64964;48.694;21.206;2024-02-16T06:59:12;49.03;;;20.10;;
76194;SDS011;64964;48.694;21.206;2024-02-16T07:01:38;48.63;;;20.43;;
76194;SDS011;64964;48.694;21.206;2024-02-16T07:04:03;45.67;;;19.70;;
76194;SDS011;64964;48.694;21.206;2024-02-16T07:06:29;48.70;;;21.88;;
76194;SDS011;64964;48.694;21.206;2024-02-16T07:08:54;46.07;;;20.53;;
76194;SDS011;64964;48.694;21.206;2024-02-16T07:11:19;46.37;;;20.73;;
76194;SDS011;64964;48.694;21.206;2024-02-16T07:13:46;45.20;;;20.02;;
76194;SDS011;64964;48.694;21.206;2024-02-16T07:16:11;43.33;;;20.33;;
76194;SDS011;64964;48.694;21.206;2024-02-16T07:18:37;48.67;;;21.07;;
76194;SDS011;64964;48.694;21.206;2024-02-16T07:21:02;48.83;;;20.13;;
76194;SDS011;64964;48.694;21.206;2024-02-16T07:23:28;42.70;;;19.83;;
76194;SDS011;64964;48.694;21.206;2024-02-16T07:25:54;47.80;;;20.13;;
76194;SDS011;64964;48.694;21.206;2024-02-16T07:28:24;42.67;;;19.83;;
76194;SDS011;64964;48.694;21.206;2024-02-16T07:30:51;48.97;;;20.75;;
76194;SDS011;64964;48.694;21.206;2024-02-16T07:33:16;49.73;;;19.73;;
76194;SDS011;64964;48.694;21.206;2024-02-16T07:35:42;46.40;;;21.17;;
76194;SDS011;64964;48.694;21.206;2024-02-16T07:38:09;44.30;;;20.25;;
76194;SDS011;64964;48.694;21.206;2024-02-16T07:40:34;39.17;;;19.37;;
76194;SDS011;64964;48.694;21.206;2024-02-16T07:43:00;41.87;;;19.20;;
76194;SDS011;64964;48.694;21.206;2024-02-16T07:45:26;37.53;;;18.17;;
76194;SDS011;64964;48.694;21.206;2024-02-16T07:47:51;44.47;;;19.20;;
76194;SDS011;64964;48.694;21.206;2024-02-16T07:50:20;43.13;;;19.35;;
76194;SDS011;64964;48.694;21.206;2024-02-16T07:52:46;40.63;;;19.42;;
76194;SDS011;64964;48.694;21.206;2024-02-16T07:55:12;47.73;;;20.20;;
76194;SDS011;64964;48.694;21.206;2024-02-16T07:57:37;44.30;;;19.90;;
76194;SDS011;64964;48.694;21.206;2024-02-16T08:00:03;43.57;;;20.30;;
76194;SDS011;64964;48.694;21.206;2024-02-16T08:02:30;49.80;;;21.30;;
76194;SDS011;64964;48.694;21.206;2024-02-16T08:04:55;45.70;;;23.23;;
76194;SDS011;64964;48.694;21.206;2024-02-16T08:07:21;44.03;;;19.90;;
76194;SDS011;64964;48.694;21.206;2024-02-16T08:09:46;34.75;;;19.40;;
76194;SDS011;64964;48.694;21.206;2024-02-16T08:12:12;39.13;;;19.40;;
76194;SDS011;64964;48.694;21.206;2024-02-16T08:14:38;36.97;;;18.35;;
76194;SDS011;64964;48.694;21.206;2024-02-16T08:17:05;37.28;;;18.20;;
76194;SDS011;64964;48.694;21.206;2024-02-16T08:19:35;35.80;;;18.67;;
76194;SDS011;64964;48.694;21.206;2024-02-16T08:22:05;34.20;;;19.05;;
76194;SDS011;64964;48.694;21.206;2024-02-16T08:24:35;37.35;;;19.13;;
76194;SDS011;64964;48.694;21.206;2024-02-16T08:27:01;33.70;;;18.60;;
76194;SDS011;64964;48.694;21.206;2024-02-16T08:29:27;33.25;;;18.20;;
76194;SDS011;64964;48.694;21.206;2024-02-16T08:31:53;33.30;;;18.47;;
76194;SDS011;64964;48.694;21.206;2024-02-16T08:34:19;41.78;;;18.52;;
76194;SDS011;64964;48.694;21.206;2024-02-16T08:36:46;34.87;;;17.10;;
76194;SDS011;64964;48.694;21.206;2024-02-16T08:39:12;31.67;;;18.10;;
76194;SDS011;64964;48.694;21.206;2024-02-16T08:41:38;30.47;;;17.33;;
76194;SDS011;64964;48.694;21.206;2024-02-16T08:44:04;28.90;;;16.85;;
76194;SDS011;64964;48.694;21.206;2024-02-16T08:46:29;31.73;;;17.20;;
76194;SDS011;64964;48.694;21.206;2024-02-16T08:48:55;30.90;;;17.10;;
76194;SDS011;64964;48.694;21.206;2024-02-16T08:51:21;29.30;;;16.48;;
76194;SDS011;64964;48.694;21.206;2024-02-16T08:53:46;25.50;;;15.13;;
76194;SDS011;64964;48.694;21.206;2024-02-16T08:56:11;27.57;;;16.03;;
76194;SDS011;64964;48.694;21.206;2024-02-16T08:58:37;27.65;;;15.85;;
76194;SDS011;64964;48.694;21.206;2024-02-16T09:01:03;23.67;;;14.27;;
76194;SDS011;64964;48.694;21.206;2024-02-16T09:03:29;30.73;;;16.50;;
76194;SDS011;64964;48.694;21.206;2024-02-16T09:05:58;28.52;;;15.65;;
76194;SDS011;64964;48.694;21.206;2024-02-16T09:08:23;26.57;;;15.30;;
76194;SDS011;64964;48.694;21.206;2024-02-16T09:10:50;24.75;;;14.73;;
76194;SDS011;64964;48.694;21.206;2024-02-16T09:13:15;24.40;;;14.50;;
76194;SDS011;64964;48.694;21.206;2024-02-16T09:15:41;21.20;;;12.87;;
76194;SDS011;64964;48.694;21.206;2024-02-16T09:18:06;22.37;;;13.70;;
76194;SDS011;64964;48.694;21.206;2024-02-16T09:20:31;27.03;;;15.00;;
76194;SDS011;64964;48.694;21.206;2024-02-16T09:22:57;29.23;;;16.33;;
76194;SDS011;64964;48.694;21.206;2024-02-16T09:25:22;23.35;;;13.57;;
76194;SDS011;64964;48.694;21.206;2024-02-16T09:27:48;31.33;;;17.17;;
76194;SDS011;64964;48.694;21.206;2024-02-16T09:30:13;36.07;;;18.70;;
76194;SDS011;64964;48.694;21.206;2024-02-16T09:32:39;34.40;;;18.97;;
76194;SDS011;64964;48.694;21.206;2024-02-16T09:35:06;32.40;;;16.77;;
76194;SDS011;64964;48.694;21.206;2024-02-16T09:37:32;30.30;;;16.83;;
76194;SDS011;64964;48.694;21.206;2024-02-16T09:39:57;35.73;;;18.83;;
76194;SDS011;64964;48.694;21.206;2024-02-16T09:42:23;34.43;;;17.93;;
76194;SDS011;64964;48.694;21.206;2024-02-16T09:44:51;32.25;;;18.13;;
76194;SDS011;64964;48.694;21.206;2024-02-16T09:47:17;33.15;;;18.17;;
76194;SDS011;64964;48.694;21.206;2024-02-16T09:49:45;44.65;;;19.52;;
76194;SDS011;64964;48.694;21.206;2024-02-16T09:52:13;31.30;;;16.95;;
76194;SDS011;64964;48.694;21.206;2024-02-16T09:54:38;33.63;;;17.10;;
76194;SDS011;64964;48.694;21.206;2024-02-16T09:57:04;20.02;;;12.00;;
76194;SDS011;64964;48.694;21.206;2024-02-16T09:59:29;19.50;;;11.33;;
76194;SDS011;64964;48.694;21.206;2024-02-16T10:02:02;19.08;;;11.23;;
76194;SDS011;64964;48.694;21.206;2024-02-16T10:04:28;17.98;;;10.50;;
76194;SDS011;64964;48.694;21.206;2024-02-16T10:06:53;19.07;;;11.53;;
76194;SDS011;64964;48.694;21.206;2024-02-16T10:09:23;17.53;;;10.53;;
76194;SDS011;64964;48.694;21.206;2024-02-16T10:11:49;17.50;;;10.50;;
76194;SDS011;64964;48.694;21.206;2024-02-16T10:14:14;20.27;;;11.40;;
76194;SDS011;64964;48.694;21.206;2024-02-16T10:16:40;19.85;;;10.93;;
76194;SDS011;64964;48.694;21.206;2024-02-16T10:19:06;16.33;;;9.70;;
76194;SDS011;64964;48.694;21.206;2024-02-16T10:21:32;13.10;;;8.27;;
76194;SDS011;64964;48.694;21.206;2024-02-16T10:26:29;27.08;;;14.18;;
76194;SDS011;64964;48.694;21.206;2024-02-16T10:28:55;38.42;;;20.63;;
76194;SDS011;64964;48.694;21.206;2024-02-16T10:31:24;27.67;;;15.75;;
76194;SDS011;64964;48.694;21.206;2024-02-16T10:33:58;28.77;;;15.60;;
76194;SDS011;64964;48.694;21.206;2024-02-16T10:36:25;24.05;;;13.05;;
76194;SDS011;64964;48.694;21.206;2024-02-16T10:38:53;20.25;;;12.07;;
76194;SDS011;64964;48.694;21.206;2024-02-16T10:41:19;18.58;;;10.45;;
76194;SDS011;64964;48.694;21.206;2024-02-16T10:43:47;19.15;;;8.27;;
76194;SDS011;64964;48.694;21.206;2024-02-16T10:46:14;16.97;;;10.10;;
76194;SDS011;64964;48.694;21.206;2024-02-16T10:48:41;29.10;;;17.92;;
76194;SDS011;64964;48.694;21.206;2024-02-16T10:51:07;17.90;;;10.15;;
76194;SDS011;64964;48.694;21.206;2024-02-16T10:53:34;15.27;;;10.02;;
76194;SDS011;64964;48.694;21.206;2024-02-16T10:56:00;14.17;;;9.67;;
76194;SDS011;64964;48.694;21.206;2024-02-16T10:58:29;16.75;;;9.90;;
76194;SDS011;64964;48.694;21.206;2024-02-16T11:00:56;17.02;;;9.95;;
76194;SDS011;64964;48.694;21.206;2024-02-16T11:03:23;15.38;;;9.55;;
76194;SDS011;64964;48.694;21.206;2024-02-16T11:05:50;16.80;;;10.32;;
76194;SDS011;64964;48.694;21.206;2024-02-16T11:08:16;16.57;;;9.77;;
76194;SDS011;64964;48.694;21.206;2024-02-16T11:10:59;20.85;;;10.52;;
76194;SDS011;64964;48.694;21.206;2024-02-16T11:13:26;17.33;;;10.13;;
76194;SDS011;64964;48.694;21.206;2024-02-16T11:15:56;17.77;;;9.38;;
76194;SDS011;64964;48.694;21.206;2024-02-16T11:18:27;16.88;;;10.75;;
76194;SDS011;64964;48.694;21.206;2024-02-16T11:20:52;17.87;;;9.97;;
76194;SDS011;64964;48.694;21.206;2024-02-16T11:23:24;16.05;;;9.32;;
76194;SDS011;64964;48.694;21.206;2024-02-16T11:25:51;16.42;;;9.93;;
76194;SDS011;64964;48.694;21.206;2024-02-16T11:28:17;26.70;;;18.90;;
76194;SDS011;64964;48.694;21.206;2024-02-16T11:30:43;17.45;;;9.80;;
76194;SDS011;64964;48.694;21.206;2024-02-16T11:33:12;13.70;;;8.10;;
76194;SDS011;64964;48.694;21.206;2024-02-16T11:35:37;16.35;;;10.57;;
76194;SDS011;64964;48.694;21.206;2024-02-16T11:38:03;14.93;;;9.00;;
76194;SDS011;64964;48.694;21.206;2024-02-16T11:40:30;16.42;;;9.65;;
76194;SDS011;64964;48.694;21.206;2024-02-16T11:42:59;14.97;;;9.27;;
76194;SDS011;64964;48.694;21.206;2024-02-16T11:45:25;14.75;;;8.70;;
76194;SDS011;64964;48.694;21.206;2024-02-16T11:47:51;14.13;;;8.70;;
76194;SDS011;64964;48.694;21.206;2024-02-16T11:50:27;15.40;;;8.83;;
76194;SDS011;64964;48.694;21.206;2024-02-16T11:52:52;16.60;;;10.10;;
76194;SDS011;64964;48.694;21.206;2024-02-16T11:55:17;13.30;;;8.07;;
76194;SDS011;64964;48.694;21.206;2024-02-16T11:57:43;13.17;;;8.37;;
76194;SDS011;64964;48.694;21.206;2024-02-16T12:00:10;16.45;;;9.00;;
76194;SDS011;64964;48.694;21.206;2024-02-16T12:02:39;14.15;;;8.68;;
76194;SDS011;64964;48.694;21.206;2024-02-16T12:05:05;12.67;;;8.53;;
76194;SDS011;64964;48.694;21.206;2024-02-16T12:07:32;14.45;;;9.35;;
76194;SDS011;64964;48.694;21.206;2024-02-16T12:10:01;15.60;;;8.40;;
76194;SDS011;64964;48.694;21.206;2024-02-16T12:12:30;11.47;;;6.00;;
76194;SDS011;64964;48.694;21.206;2024-02-16T12:14:56;11.98;;;7.15;;
76194;SDS011;64964;48.694;21.206;2024-02-16T12:17:22;12.02;;;8.15;;
76194;SDS011;64964;48.694;21.206;2024-02-16T12:19:47;13.70;;;7.50;;
76194;SDS011;64964;48.694;21.206;2024-02-16T12:22:18;14.77;;;8.18;;
76194;SDS011;64964;48.694;21.206;2024-02-16T12:24:45;14.65;;;8.27;;
76194;SDS011;64964;48.694;21.206;2024-02-16T12:27:11;13.73;;;7.90;;
76194;SDS011;64964;48.694;21.206;2024-02-16T12:29:36;12.70;;;7.10;;
76194;SDS011;64964;48.694;21.206;2024-02-16T12:32:02;10.10;;;7.27;;
76194;SDS011;64964;48.694;21.206;2024-02-16T12:34:27;14.40;;;7.77;;
76194;SDS011;64964;48.694;21.206;2024-02-16T12:36:53;10.20;;;7.03;;
76194;SDS011;64964;48.694;21.206;2024-02-16T12:39:18;18.10;;;8.10;;
76194;SDS011;64964;48.694;21.206;2024-02-16T12:41:43;13.93;;;7.73;;
76194;SDS011;64964;48.694;21.206;2024-02-16T12:44:09;12.00;;;7.18;;
76194;SDS011;64964;48.694;21.206;2024-02-16T12:46:35;9.57;;;4.47;;
76194;SDS011;64964;48.694;21.206;2024-02-16T12:49:00;10.37;;;6.23;;
76194;SDS011;64964;48.694;21.206;2024-02-16T12:51:25;9.00;;;5.80;;
76194;SDS011;64964;48.694;21.206;2024-02-16T12:53:51;15.15;;;10.85;;
76194;SDS011;64964;48.694;21.206;2024-02-16T12:56:16;12.60;;;7.57;;
76194;SDS011;64964;48.694;21.206;2024-02-16T12:58:42;10.70;;;6.87;;
76194;SDS011;64964;48.694;21.206;2024-02-16T13:01:07;10.38;;;6.22;;
76194;SDS011;64964;48.694;21.206;2024-02-16T13:03:36;11.93;;;6.37;;
76194;SDS011;64964;48.694;21.206;2024-02-16T13:06:03;13.23;;;7.22;;
76194;SDS011;64964;48.694;21.206;2024-02-16T13:08:29;11.15;;;6.80;;
76194;SDS011;64964;48.694;21.206;2024-02-16T13:10:55;13.27;;;8.13;;
76194;SDS011;64964;48.694;21.206;2024-02-16T13:13:21;14.93;;;8.80;;
76194;SDS011;64964;48.694;21.206;2024-02-16T13:15:46;29.75;;;17.33;;
76194;SDS011;64964;48.694;21.206;2024-02-16T13:18:13;13.10;;;8.50;;
76194;SDS011;64964;48.694;21.206;2024-02-16T13:20:39;9.98;;;6.22;;
76194;SDS011;64964;48.694;21.206;2024-02-16T13:23:04;13.50;;;7.63;;
76194;SDS011;64964;48.694;21.206;2024-02-16T13:25:30;13.52;;;8.05;;
76194;SDS011;64964;48.694;21.206;2024-02-16T13:27:55;12.47;;;6.93;;
76194;SDS011;64964;48.694;21.206;2024-02-16T13:30:21;11.07;;;7.30;;
76194;SDS011;64964;48.694;21.206;2024-02-16T13:32:46;11.57;;;7.63;;
76194;SDS011;64964;48.694;21.206;2024-02-16T13:35:11;11.17;;;6.37;;
76194;SDS011;64964;48.694;21.206;2024-02-16T13:37:38;13.68;;;7.38;;
76194;SDS011;64964;48.694;21.206;2024-02-16T13:40:05;9.05;;;5.72;;
76194;SDS011;64964;48.694;21.206;2024-02-16T13:42:35;15.80;;;6.77;;
76194;SDS011;64964;48.694;21.206;2024-02-16T13:45:00;11.80;;;7.27;;
76194;SDS011;64964;48.694;21.206;2024-02-16T13:47:25;12.03;;;7.43;;
76194;SDS011;64964;48.694;21.206;2024-02-16T13:49:51;12.83;;;6.93;;
76194;SDS011;64964;48.694;21.206;2024-02-16T13:52:17;15.57;;;7.97;;
76194;SDS011;64964;48.694;21.206;2024-02-16T13:54:42;12.47;;;6.10;;
76194;SDS011;64964;48.694;21.206;2024-02-16T13:57:08;11.53;;;7.33;;
76194;SDS011;64964;48.694;21.206;2024-02-16T13:59:33;13.63;;;7.03;;
76194;SDS011;64964;48.694;21.206;2024-02-16T14:01:59;12.55;;;7.15;;
76194;SDS011;64964;48.694;21.206;2024-02-16T14:04:26;12.77;;;6.87;;
76194;SDS011;64964;48.694;21.206;2024-02-16T14:06:52;12.23;;;7.30;;